sensor_id;sensor_type;location;lat;lon;timestamp;temperature;humidity
10583;DHT22;33679;51.218;6.786;2023-06-05T00:00:08;20.10;96.20
10583;DHT22;33679;51.218;6.786;2023-06-05T00:02:43;20.00;96.40
10583;DHT22;33679;51.218;6.786;2023-06-05T00:05:17;20.00;96.70
10583;DHT22;33679;51.218;6.786;2023-06-05T00:07:49;20.00;96.80
10583;DHT22;33679;51.218;6.786;2023-06-05T00:10:22;19.90;96.90
10583;DHT22;33679;51.218;6.786;2023-06-05T00:12:56;19.90;97.10
10583;DHT22;33679;51.218;6.786;2023-06-05T00:15:28;19.80;97.30
10583;DHT22;33679;51.218;6.786;2023-06-05T00:18:02;19.80;97.50
10583;DHT22;33679;51.218;6.786;2023-06-05T00:20:36;19.80;97.80
10583;DHT22;33679;51.218;6.786;2023-06-05T00:23:08;19.80;97.90
10583;DHT22;33679;51.218;6.786;2023-06-05T00:25:42;19.70;98.10
10583;DHT22;33679;51.218;6.786;2023-06-05T00:28:18;19.70;98.40
10583;DHT22;33679;51.218;6.786;2023-06-05T00:30:51;19.70;98.50
10583;DHT22;33679;51.218;6.786;2023-06-05T00:33:26;19.70;98.70
10583;DHT22;33679;51.218;6.786;2023-06-05T00:36:04;19.60;99.00
10583;DHT22;33679;51.218;6.786;2023-06-05T00:38:37;19.60;99.10
10583;DHT22;33679;51.218;6.786;2023-06-05T00:41:09;19.60;99.30
10583;DHT22;33679;51.218;6.786;2023-06-05T00:43:43;19.50;99.50
10583;DHT22;33679;51.218;6.786;2023-06-05T00:46:19;19.50;99.60
10583;DHT22;33679;51.218;6.786;2023-06-05T00:48:51;19.50;99.90
10583;DHT22;33679;51.218;6.786;2023-06-05T00:51:24;19.50;99.90
10583;DHT22;33679;51.218;6.786;2023-06-05T00:54:00;19.40;99.90
10583;DHT22;33679;51.218;6.786;2023-06-05T00:56:33;19.40;99.90
10583;DHT22;33679;51.218;6.786;2023-06-05T00:59:08;19.40;99.90
10583;DHT22;33679;51.218;6.786;2023-06-05T01:01:40;19.30;99.90
10583;DHT22;33679;51.218;6.786;2023-06-05T01:04:15;19.30;99.90
10583;DHT22;33679;51.218;6.786;2023-06-05T01:06:50;19.20;99.90
10583;DHT22;33679;51.218;6.786;2023-06-05T01:09:24;19.20;99.90
10583;DHT22;33679;51.218;6.786;2023-06-05T01:12:03;19.30;99.90
10583;DHT22;33679;51.218;6.786;2023-06-05T01:14:39;19.20;99.90
10583;DHT22;33679;51.218;6.786;2023-06-05T01:17:17;19.10;99.90
10583;DHT22;33679;51.218;6.786;2023-06-05T01:19:51;19.10;99.90
10583;DHT22;33679;51.218;6.786;2023-06-05T01:22:26;19.00;99.90
10583;DHT22;33679;51.218;6.786;2023-06-05T01:25:00;19.00;99.90
10583;DHT22;33679;51.218;6.786;2023-06-05T01:27:38;19.00;99.90
10583;DHT22;33679;51.218;6.786;2023-06-05T01:30:18;19.00;99.90
10583;DHT22;33679;51.218;6.786;2023-06-05T01:32:59;19.00;99.90
10583;DHT22;33679;51.218;6.786;2023-06-05T01:35:34;19.00;99.90
10583;DHT22;33679;51.218;6.786;2023-06-05T01:38:08;18.90;99.90
10583;DHT22;33679;51.218;6.786;2023-06-05T01:40:47;18.90;99.90
10583;DHT22;33679;51.218;6.786;2023-06-05T01:43:20;18.90;99.90
10583;DHT22;33679;51.218;6.786;2023-06-05T01:45:53;18.90;99.90
10583;DHT22;33679;51.218;6.786;2023-06-05T01:48:27;18.90;99.90
10583;DHT22;33679;51.218;6.786;2023-06-05T01:51:03;18.80;99.90
10583;DHT22;33679;51.218;6.786;2023-06-05T01:53:36;18.80;99.90
10583;DHT22;33679;51.218;6.786;2023-06-05T01:56:10;18.80;99.90
10583;DHT22;33679;51.218;6.786;2023-06-05T01:58:43;18.70;99.90
10583;DHT22;33679;51.218;6.786;2023-06-05T02:01:17;18.70;99.90
10583;DHT22;33679;51.218;6.786;2023-06-05T02:03:53;18.60;99.90
10583;DHT22;33679;51.218;6.786;2023-06-05T02:06:28;18.50;99.90
10583;DHT22;33679;51.218;6.786;2023-06-05T02:09:06;18.50;99.90
10583;DHT22;33679;51.218;6.786;2023-06-05T02:11:42;18.40;99.90
10583;DHT22;33679;51.218;6.786;2023-06-05T02:14:18;18.30;99.90
10583;DHT22;33679;51.218;6.786;2023-06-05T02:16:51;18.30;99.90
10583;DHT22;33679;51.218;6.786;2023-06-05T02:19:25;18.20;99.90
10583;DHT22;33679;51.218;6.786;2023-06-05T02:21:57;18.20;99.90
10583;DHT22;33679;51.218;6.786;2023-06-05T02:24:29;18.10;99.90
10583;DHT22;33679;51.218;6.786;2023-06-05T02:27:03;18.00;99.90
10583;DHT22;33679;51.218;6.786;2023-06-05T02:29:36;18.00;99.90
10583;DHT22;33679;51.218;6.786;2023-06-05T02:32:09;17.90;99.90
10583;DHT22;33679;51.218;6.786;2023-06-05T02:34:45;17.90;99.90
10583;DHT22;33679;51.218;6.786;2023-06-05T02:37:18;17.80;99.90
10583;DHT22;33679;51.218;6.786;2023-06-05T02:39:54;17.80;99.90
10583;DHT22;33679;51.218;6.786;2023-06-05T02:42:28;17.80;99.90
10583;DHT22;33679;51.218;6.786;2023-06-05T02:45:00;17.80;99.90
10583;DHT22;33679;51.218;6.786;2023-06-05T02:47:33;17.80;99.90
10583;DHT22;33679;51.218;6.786;2023-06-05T02:50:07;17.80;99.90
10583;DHT22;33679;51.218;6.786;2023-06-05T02:52:44;17.70;99.90
10583;DHT22;33679;51.218;6.786;2023-06-05T02:55:22;17.70;99.90
10583;DHT22;33679;51.218;6.786;2023-06-05T02:58:00;17.70;99.90
10583;DHT22;33679;51.218;6.786;2023-06-05T03:00:44;17.70;99.90
10583;DHT22;33679;51.218;6.786;2023-06-05T03:03:20;17.70;99.90
10583;DHT22;33679;51.218;6.786;2023-06-05T03:05:58;17.70;99.90
10583;DHT22;33679;51.218;6.786;2023-06-05T03:08:37;17.80;99.90
10583;DHT22;33679;51.218;6.786;2023-06-05T03:11:15;17.80;99.90
10583;DHT22;33679;51.218;6.786;2023-06-05T03:13:50;17.80;99.90
10583;DHT22;33679;51.218;6.786;2023-06-05T03:16:23;17.70;99.90
10583;DHT22;33679;51.218;6.786;2023-06-05T03:19:08;17.60;99.90
10583;DHT22;33679;51.218;6.786;2023-06-05T03:21:45;17.60;99.90
10583;DHT22;33679;51.218;6.786;2023-06-05T03:24:19;17.60;99.90
10583;DHT22;33679;51.218;6.786;2023-06-05T03:27:01;17.50;99.90
10583;DHT22;33679;51.218;6.786;2023-06-05T03:29:37;17.50;99.90
10583;DHT22;33679;51.218;6.786;2023-06-05T03:32:10;17.40;99.90
10583;DHT22;33679;51.218;6.786;2023-06-05T03:34:45;17.30;99.90
10583;DHT22;33679;51.218;6.786;2023-06-05T03:37:20;17.30;99.90
10583;DHT22;33679;51.218;6.786;2023-06-05T03:39:53;17.30;99.90
10583;DHT22;33679;51.218;6.786;2023-06-05T03:42:28;17.30;99.90
10583;DHT22;33679;51.218;6.786;2023-06-05T03:45:02;17.30;99.90
10583;DHT22;33679;51.218;6.786;2023-06-05T03:47:35;17.40;99.90
10583;DHT22;33679;51.218;6.786;2023-06-05T03:50:11;17.40;99.90
10583;DHT22;33679;51.218;6.786;2023-06-05T03:52:47;17.40;99.90
10583;DHT22;33679;51.218;6.786;2023-06-05T03:55:24;17.50;99.90
10583;DHT22;33679;51.218;6.786;2023-06-05T03:57:59;17.50;99.90
10583;DHT22;33679;51.218;6.786;2023-06-05T04:00:33;17.40;99.90
10583;DHT22;33679;51.218;6.786;2023-06-05T04:03:06;17.50;99.90
10583;DHT22;33679;51.218;6.786;2023-06-05T04:05:40;17.50;99.90
10583;DHT22;33679;51.218;6.786;2023-06-05T04:08:13;17.50;99.90
10583;DHT22;33679;51.218;6.786;2023-06-05T04:10:46;17.50;99.90
10583;DHT22;33679;51.218;6.786;2023-06-05T04:13:22;17.50;99.90
10583;DHT22;33679;51.218;6.786;2023-06-05T04:15:57;17.50;99.90
10583;DHT22;33679;51.218;6.786;2023-06-05T04:18:29;17.60;99.90
10583;DHT22;33679;51.218;6.786;2023-06-05T04:21:02;17.60;99.90
10583;DHT22;33679;51.218;6.786;2023-06-05T04:23:34;17.60;99.90
10583;DHT22;33679;51.218;6.786;2023-06-05T04:26:07;17.60;99.90
10583;DHT22;33679;51.218;6.786;2023-06-05T04:28:39;17.60;99.90
10583;DHT22;33679;51.218;6.786;2023-06-05T04:31:14;17.60;99.90
10583;DHT22;33679;51.218;6.786;2023-06-05T04:33:47;17.70;99.90
10583;DHT22;33679;51.218;6.786;2023-06-05T04:36:20;17.70;99.90
10583;DHT22;33679;51.218;6.786;2023-06-05T04:38:55;17.80;99.90
10583;DHT22;33679;51.218;6.786;2023-06-05T04:41:28;17.80;99.90
10583;DHT22;33679;51.218;6.786;2023-06-05T04:44:02;17.90;99.90
10583;DHT22;33679;51.218;6.786;2023-06-05T04:46:37;18.00;99.90
10583;DHT22;33679;51.218;6.786;2023-06-05T04:49:10;17.90;99.90
10583;DHT22;33679;51.218;6.786;2023-06-05T04:51:43;18.00;99.90
10583;DHT22;33679;51.218;6.786;2023-06-05T04:54:19;17.90;99.90
10583;DHT22;33679;51.218;6.786;2023-06-05T04:56:52;18.00;99.90
10583;DHT22;33679;51.218;6.786;2023-06-05T04:59:27;18.10;99.90
10583;DHT22;33679;51.218;6.786;2023-06-05T05:02:01;18.10;99.90
10583;DHT22;33679;51.218;6.786;2023-06-05T05:04:33;18.10;99.90
10583;DHT22;33679;51.218;6.786;2023-06-05T05:07:07;18.10;99.90
10583;DHT22;33679;51.218;6.786;2023-06-05T05:09:45;18.20;99.90
10583;DHT22;33679;51.218;6.786;2023-06-05T05:12:20;18.20;99.90
10583;DHT22;33679;51.218;6.786;2023-06-05T05:14:53;18.30;99.90
10583;DHT22;33679;51.218;6.786;2023-06-05T05:17:27;18.30;99.90
10583;DHT22;33679;51.218;6.786;2023-06-05T05:20:00;18.30;99.90
10583;DHT22;33679;51.218;6.786;2023-06-05T05:22:35;18.30;99.90
10583;DHT22;33679;51.218;6.786;2023-06-05T05:25:08;18.20;99.90
10583;DHT22;33679;51.218;6.786;2023-06-05T05:27:41;18.30;99.90
10583;DHT22;33679;51.218;6.786;2023-06-05T05:30:13;18.30;99.90
10583;DHT22;33679;51.218;6.786;2023-06-05T05:32:47;18.40;99.90
10583;DHT22;33679;51.218;6.786;2023-06-05T05:35:24;18.50;99.90
10583;DHT22;33679;51.218;6.786;2023-06-05T05:38:14;18.50;99.90
10583;DHT22;33679;51.218;6.786;2023-06-05T05:40:46;18.80;99.90
10583;DHT22;33679;51.218;6.786;2023-06-05T05:43:19;19.60;99.90
10583;DHT22;33679;51.218;6.786;2023-06-05T05:45:51;20.70;99.90
10583;DHT22;33679;51.218;6.786;2023-06-05T05:48:25;22.10;99.90
10583;DHT22;33679;51.218;6.786;2023-06-05T05:50:57;23.50;99.90
10583;DHT22;33679;51.218;6.786;2023-06-05T05:53:30;24.70;99.90
10583;DHT22;33679;51.218;6.786;2023-06-05T05:56:05;26.00;99.90
10583;DHT22;33679;51.218;6.786;2023-06-05T05:58:38;27.20;99.60
10583;DHT22;33679;51.218;6.786;2023-06-05T06:01:12;28.10;98.00
10583;DHT22;33679;51.218;6.786;2023-06-05T06:03:46;29.10;96.30
10583;DHT22;33679;51.218;6.786;2023-06-05T06:06:20;29.80;95.30
10583;DHT22;33679;51.218;6.786;2023-06-05T06:08:53;30.40;94.30
10583;DHT22;33679;51.218;6.786;2023-06-05T06:11:25;30.60;93.40
10583;DHT22;33679;51.218;6.786;2023-06-05T06:13:58;30.70;93.00
10583;DHT22;33679;51.218;6.786;2023-06-05T06:16:30;30.60;92.70
10583;DHT22;33679;51.218;6.786;2023-06-05T06:19:05;30.00;92.50
10583;DHT22;33679;51.218;6.786;2023-06-05T06:21:38;29.40;92.90
10583;DHT22;33679;51.218;6.786;2023-06-05T06:24:10;28.60;93.40
10583;DHT22;33679;51.218;6.786;2023-06-05T06:26:47;27.90;94.00
10583;DHT22;33679;51.218;6.786;2023-06-05T06:29:19;27.10;94.70
10583;DHT22;33679;51.218;6.786;2023-06-05T06:31:54;26.40;95.20
10583;DHT22;33679;51.218;6.786;2023-06-05T06:34:29;25.80;95.80
10583;DHT22;33679;51.218;6.786;2023-06-05T06:37:01;25.30;96.30
10583;DHT22;33679;51.218;6.786;2023-06-05T06:39:34;24.90;96.70
10583;DHT22;33679;51.218;6.786;2023-06-05T06:42:08;24.40;97.30
10583;DHT22;33679;51.218;6.786;2023-06-05T06:44:40;24.10;97.50
10583;DHT22;33679;51.218;6.786;2023-06-05T06:47:16;23.80;97.90
10583;DHT22;33679;51.218;6.786;2023-06-05T06:49:50;23.60;98.20
10583;DHT22;33679;51.218;6.786;2023-06-05T06:52:24;23.40;98.50
10583;DHT22;33679;51.218;6.786;2023-06-05T06:54:56;23.20;98.70
10583;DHT22;33679;51.218;6.786;2023-06-05T06:57:29;23.00;99.00
10583;DHT22;33679;51.218;6.786;2023-06-05T07:00:02;22.90;99.30
10583;DHT22;33679;51.218;6.786;2023-06-05T07:02:40;22.70;99.60
10583;DHT22;33679;51.218;6.786;2023-06-05T07:05:14;22.60;99.70
10583;DHT22;33679;51.218;6.786;2023-06-05T07:07:47;22.60;99.70
10583;DHT22;33679;51.218;6.786;2023-06-05T07:10:19;22.50;99.90
10583;DHT22;33679;51.218;6.786;2023-06-05T07:12:53;22.30;99.90
10583;DHT22;33679;51.218;6.786;2023-06-05T07:15:25;22.20;99.90
10583;DHT22;33679;51.218;6.786;2023-06-05T07:18:08;22.10;99.90
10583;DHT22;33679;51.218;6.786;2023-06-05T07:20:46;22.10;99.90
10583;DHT22;33679;51.218;6.786;2023-06-05T07:23:21;22.10;99.90
10583;DHT22;33679;51.218;6.786;2023-06-05T07:25:58;22.20;99.90
10583;DHT22;33679;51.218;6.786;2023-06-05T07:28:31;22.20;99.90
10583;DHT22;33679;51.218;6.786;2023-06-05T07:31:04;22.20;99.90
10583;DHT22;33679;51.218;6.786;2023-06-05T07:33:37;22.30;99.90
10583;DHT22;33679;51.218;6.786;2023-06-05T07:36:14;22.30;99.90
10583;DHT22;33679;51.218;6.786;2023-06-05T07:38:53;22.30;99.90
10583;DHT22;33679;51.218;6.786;2023-06-05T07:41:27;22.30;99.90
10583;DHT22;33679;51.218;6.786;2023-06-05T07:44:01;22.30;99.90
10583;DHT22;33679;51.218;6.786;2023-06-05T07:46:33;22.20;99.90
10583;DHT22;33679;51.218;6.786;2023-06-05T07:49:07;22.20;99.90
10583;DHT22;33679;51.218;6.786;2023-06-05T07:51:42;22.20;99.90
10583;DHT22;33679;51.218;6.786;2023-06-05T07:54:15;22.20;99.90
10583;DHT22;33679;51.218;6.786;2023-06-05T07:56:48;22.30;99.90
10583;DHT22;33679;51.218;6.786;2023-06-05T07:59:22;22.40;99.90
10583;DHT22;33679;51.218;6.786;2023-06-05T08:01:58;22.40;99.90
10583;DHT22;33679;51.218;6.786;2023-06-05T08:04:32;22.50;99.90
10583;DHT22;33679;51.218;6.786;2023-06-05T08:07:07;22.50;99.90
10583;DHT22;33679;51.218;6.786;2023-06-05T08:09:43;22.50;99.90
10583;DHT22;33679;51.218;6.786;2023-06-05T08:12:18;22.50;99.90
10583;DHT22;33679;51.218;6.786;2023-06-05T08:14:51;22.70;99.90
10583;DHT22;33679;51.218;6.786;2023-06-05T08:17:24;22.80;99.90
10583;DHT22;33679;51.218;6.786;2023-06-05T08:19:58;22.70;99.90
10583;DHT22;33679;51.218;6.786;2023-06-05T08:22:33;22.80;99.90
10583;DHT22;33679;51.218;6.786;2023-06-05T08:25:08;22.90;99.70
10583;DHT22;33679;51.218;6.786;2023-06-05T08:27:41;23.00;99.40
10583;DHT22;33679;51.218;6.786;2023-06-05T08:30:20;23.00;99.00
10583;DHT22;33679;51.218;6.786;2023-06-05T08:32:56;23.00;98.80
10583;DHT22;33679;51.218;6.786;2023-06-05T08:35:31;23.10;98.70
10583;DHT22;33679;51.218;6.786;2023-06-05T08:38:10;23.10;98.90
10583;DHT22;33679;51.218;6.786;2023-06-05T08:40:55;23.10;98.90
10583;DHT22;33679;51.218;6.786;2023-06-05T08:43:30;23.10;98.60
10583;DHT22;33679;51.218;6.786;2023-06-05T08:46:04;23.10;99.00
10583;DHT22;33679;51.218;6.786;2023-06-05T08:48:42;23.20;98.70
10583;DHT22;33679;51.218;6.786;2023-06-05T08:51:15;23.20;98.70
10583;DHT22;33679;51.218;6.786;2023-06-05T08:53:53;23.30;98.60
10583;DHT22;33679;51.218;6.786;2023-06-05T08:56:30;23.40;98.00
10583;DHT22;33679;51.218;6.786;2023-06-05T08:59:04;23.40;97.90
10583;DHT22;33679;51.218;6.786;2023-06-05T09:01:36;23.30;97.90
10583;DHT22;33679;51.218;6.786;2023-06-05T09:04:09;23.40;97.70
10583;DHT22;33679;51.218;6.786;2023-06-05T09:06:47;23.40;97.50
10583;DHT22;33679;51.218;6.786;2023-06-05T09:09:24;23.40;96.80
10583;DHT22;33679;51.218;6.786;2023-06-05T09:12:01;23.50;96.60
10583;DHT22;33679;51.218;6.786;2023-06-05T09:14:35;23.50;96.40
10583;DHT22;33679;51.218;6.786;2023-06-05T09:17:13;23.50;96.40
10583;DHT22;33679;51.218;6.786;2023-06-05T09:19:45;23.50;96.50
10583;DHT22;33679;51.218;6.786;2023-06-05T09:22:32;23.60;96.40
10583;DHT22;33679;51.218;6.786;2023-06-05T09:25:06;23.60;96.40
10583;DHT22;33679;51.218;6.786;2023-06-05T09:27:39;23.70;96.40
10583;DHT22;33679;51.218;6.786;2023-06-05T09:30:13;23.70;96.60
10583;DHT22;33679;51.218;6.786;2023-06-05T09:32:46;23.80;97.20
10583;DHT22;33679;51.218;6.786;2023-06-05T09:35:21;23.90;95.50
10583;DHT22;33679;51.218;6.786;2023-06-05T09:37:54;23.90;95.80
10583;DHT22;33679;51.218;6.786;2023-06-05T09:40:38;23.80;96.20
10583;DHT22;33679;51.218;6.786;2023-06-05T09:43:17;23.90;96.50
10583;DHT22;33679;51.218;6.786;2023-06-05T09:45:52;23.80;95.80
10583;DHT22;33679;51.218;6.786;2023-06-05T09:48:25;23.90;95.10
10583;DHT22;33679;51.218;6.786;2023-06-05T09:51:08;24.00;96.00
10583;DHT22;33679;51.218;6.786;2023-06-05T09:53:42;24.10;96.50
10583;DHT22;33679;51.218;6.786;2023-06-05T09:56:21;24.10;96.60
10583;DHT22;33679;51.218;6.786;2023-06-05T09:58:54;24.20;96.80
10583;DHT22;33679;51.218;6.786;2023-06-05T10:01:28;24.30;95.80
10583;DHT22;33679;51.218;6.786;2023-06-05T10:04:02;24.30;94.20
10583;DHT22;33679;51.218;6.786;2023-06-05T10:06:39;24.30;94.20
10583;DHT22;33679;51.218;6.786;2023-06-05T10:09:15;24.40;94.20
10583;DHT22;33679;51.218;6.786;2023-06-05T10:11:50;24.40;93.90
10583;DHT22;33679;51.218;6.786;2023-06-05T10:14:25;24.40;93.60
10583;DHT22;33679;51.218;6.786;2023-06-05T10:16:58;24.40;92.90
10583;DHT22;33679;51.218;6.786;2023-06-05T10:19:32;24.50;92.80
10583;DHT22;33679;51.218;6.786;2023-06-05T10:22:05;24.60;90.80
10583;DHT22;33679;51.218;6.786;2023-06-05T10:24:44;24.60;91.60
10583;DHT22;33679;51.218;6.786;2023-06-05T10:27:41;24.60;91.40
10583;DHT22;33679;51.218;6.786;2023-06-05T10:33:36;24.70;91.00
10583;DHT22;33679;51.218;6.786;2023-06-05T10:36:24;24.70;90.20
10583;DHT22;33679;51.218;6.786;2023-06-05T10:38:58;24.80;90.30
10583;DHT22;33679;51.218;6.786;2023-06-05T10:41:31;24.90;87.20
10583;DHT22;33679;51.218;6.786;2023-06-05T10:44:05;24.90;89.90
10583;DHT22;33679;51.218;6.786;2023-06-05T10:46:40;25.00;86.60
10583;DHT22;33679;51.218;6.786;2023-06-05T10:49:13;24.90;85.70
10583;DHT22;33679;51.218;6.786;2023-06-05T10:51:53;25.00;86.80
10583;DHT22;33679;51.218;6.786;2023-06-05T10:55:00;25.00;89.30
10583;DHT22;33679;51.218;6.786;2023-06-05T10:58:05;25.00;90.10
10583;DHT22;33679;51.218;6.786;2023-06-05T11:01:16;25.00;90.10
10583;DHT22;33679;51.218;6.786;2023-06-05T11:03:57;25.00;90.70
10583;DHT22;33679;51.218;6.786;2023-06-05T11:06:31;25.00;88.00
10583;DHT22;33679;51.218;6.786;2023-06-05T11:09:08;25.10;89.10
10583;DHT22;33679;51.218;6.786;2023-06-05T11:11:58;25.10;90.20
10583;DHT22;33679;51.218;6.786;2023-06-05T11:14:44;25.10;90.80
10583;DHT22;33679;51.218;6.786;2023-06-05T11:17:28;25.10;90.50
10583;DHT22;33679;51.218;6.786;2023-06-05T11:20:01;25.20;89.80
10583;DHT22;33679;51.218;6.786;2023-06-05T11:23:06;25.20;89.60
10583;DHT22;33679;51.218;6.786;2023-06-05T11:25:39;25.20;90.00
10583;DHT22;33679;51.218;6.786;2023-06-05T11:28:12;25.30;90.00
10583;DHT22;33679;51.218;6.786;2023-06-05T11:30:45;25.40;88.40
10583;DHT22;33679;51.218;6.786;2023-06-05T11:33:22;25.50;88.80
10583;DHT22;33679;51.218;6.786;2023-06-05T11:36:00;25.40;89.20
10583;DHT22;33679;51.218;6.786;2023-06-05T11:38:35;25.50;88.50
10583;DHT22;33679;51.218;6.786;2023-06-05T11:41:09;25.40;88.80
10583;DHT22;33679;51.218;6.786;2023-06-05T11:43:42;25.50;88.00
10583;DHT22;33679;51.218;6.786;2023-06-05T11:46:15;25.60;88.40
10583;DHT22;33679;51.218;6.786;2023-06-05T11:48:54;25.70;89.00
10583;DHT22;33679;51.218;6.786;2023-06-05T11:51:32;25.80;88.90
10583;DHT22;33679;51.218;6.786;2023-06-05T11:54:05;25.80;88.70
10583;DHT22;33679;51.218;6.786;2023-06-05T11:56:45;25.80;88.20
10583;DHT22;33679;51.218;6.786;2023-06-05T11:59:23;25.80;87.80
10583;DHT22;33679;51.218;6.786;2023-06-05T12:01:56;25.90;86.80
10583;DHT22;33679;51.218;6.786;2023-06-05T12:04:31;26.00;87.10
10583;DHT22;33679;51.218;6.786;2023-06-05T12:07:05;26.00;88.10
10583;DHT22;33679;51.218;6.786;2023-06-05T12:09:38;26.00;88.10
10583;DHT22;33679;51.218;6.786;2023-06-05T12:12:14;26.00;87.90
10583;DHT22;33679;51.218;6.786;2023-06-05T12:14:51;26.00;87.80
10583;DHT22;33679;51.218;6.786;2023-06-05T12:17:32;26.00;87.80
10583;DHT22;33679;51.218;6.786;2023-06-05T12:20:07;26.00;88.00
10583;DHT22;33679;51.218;6.786;2023-06-05T12:22:48;26.00;87.70
10583;DHT22;33679;51.218;6.786;2023-06-05T12:25:25;26.00;87.70
10583;DHT22;33679;51.218;6.786;2023-06-05T12:28:18;26.00;87.90
10583;DHT22;33679;51.218;6.786;2023-06-05T12:34:04;26.20;88.00
10583;DHT22;33679;51.218;6.786;2023-06-05T12:37:06;26.30;87.60
10583;DHT22;33679;51.218;6.786;2023-06-05T12:39:42;26.30;87.60
10583;DHT22;33679;51.218;6.786;2023-06-05T12:42:15;26.30;87.80
10583;DHT22;33679;51.218;6.786;2023-06-05T12:44:48;26.30;88.00
10583;DHT22;33679;51.218;6.786;2023-06-05T12:47:21;26.30;88.30
10583;DHT22;33679;51.218;6.786;2023-06-05T12:49:54;26.30;87.80
10583;DHT22;33679;51.218;6.786;2023-06-05T12:52:31;26.40;88.10
10583;DHT22;33679;51.218;6.786;2023-06-05T12:55:05;26.40;88.00
10583;DHT22;33679;51.218;6.786;2023-06-05T12:57:38;26.50;87.90
10583;DHT22;33679;51.218;6.786;2023-06-05T13:00:11;26.40;87.60
10583;DHT22;33679;51.218;6.786;2023-06-05T13:02:44;26.50;87.50
10583;DHT22;33679;51.218;6.786;2023-06-05T13:05:18;26.60;87.10
10583;DHT22;33679;51.218;6.786;2023-06-05T13:07:51;26.60;87.00
10583;DHT22;33679;51.218;6.786;2023-06-05T13:10:25;26.60;86.70
10583;DHT22;33679;51.218;6.786;2023-06-05T13:12:58;26.60;86.40
10583;DHT22;33679;51.218;6.786;2023-06-05T13:15:30;26.60;86.20
10583;DHT22;33679;51.218;6.786;2023-06-05T13:18:03;26.60;86.30
10583;DHT22;33679;51.218;6.786;2023-06-05T13:20:36;26.50;86.50
10583;DHT22;33679;51.218;6.786;2023-06-05T13:23:10;26.50;86.40
10583;DHT22;33679;51.218;6.786;2023-06-05T13:25:42;26.60;86.20
10583;DHT22;33679;51.218;6.786;2023-06-05T13:28:15;26.60;86.40
10583;DHT22;33679;51.218;6.786;2023-06-05T13:30:47;26.60;86.50
10583;DHT22;33679;51.218;6.786;2023-06-05T13:33:20;26.60;86.80
10583;DHT22;33679;51.218;6.786;2023-06-05T13:35:53;26.60;86.90
10583;DHT22;33679;51.218;6.786;2023-06-05T13:38:27;26.70;86.80
10583;DHT22;33679;51.218;6.786;2023-06-05T13:41:00;26.70;86.70
10583;DHT22;33679;51.218;6.786;2023-06-05T13:43:32;26.70;86.60
10583;DHT22;33679;51.218;6.786;2023-06-05T13:46:05;26.80;86.50
10583;DHT22;33679;51.218;6.786;2023-06-05T13:48:37;26.80;86.80
10583;DHT22;33679;51.218;6.786;2023-06-05T13:51:10;26.90;86.40
10583;DHT22;33679;51.218;6.786;2023-06-05T13:53:46;26.90;86.50
10583;DHT22;33679;51.218;6.786;2023-06-05T13:56:19;26.90;86.40
10583;DHT22;33679;51.218;6.786;2023-06-05T13:58:52;26.90;86.60
10583;DHT22;33679;51.218;6.786;2023-06-05T14:01:25;27.00;86.10
10583;DHT22;33679;51.218;6.786;2023-06-05T14:03:57;27.00;85.70
10583;DHT22;33679;51.218;6.786;2023-06-05T14:06:29;27.00;85.70
10583;DHT22;33679;51.218;6.786;2023-06-05T14:09:06;27.10;85.70
10583;DHT22;33679;51.218;6.786;2023-06-05T14:11:38;27.10;85.80
10583;DHT22;33679;51.218;6.786;2023-06-05T14:14:14;27.10;86.00
10583;DHT22;33679;51.218;6.786;2023-06-05T14:16:48;27.00;86.20
10583;DHT22;33679;51.218;6.786;2023-06-05T14:19:21;27.10;85.70
10583;DHT22;33679;51.218;6.786;2023-06-05T14:21:53;27.10;85.80
10583;DHT22;33679;51.218;6.786;2023-06-05T14:24:28;27.10;85.60
10583;DHT22;33679;51.218;6.786;2023-06-05T14:27:00;27.10;85.60
10583;DHT22;33679;51.218;6.786;2023-06-05T14:29:32;27.10;85.30
10583;DHT22;33679;51.218;6.786;2023-06-05T14:32:08;27.00;85.60
10583;DHT22;33679;51.218;6.786;2023-06-05T14:34:40;27.10;85.70
10583;DHT22;33679;51.218;6.786;2023-06-05T14:37:12;27.10;85.60
10583;DHT22;33679;51.218;6.786;2023-06-05T14:39:46;27.10;85.70
10583;DHT22;33679;51.218;6.786;2023-06-05T14:42:19;27.20;85.60
10583;DHT22;33679;51.218;6.786;2023-06-05T14:44:51;27.30;85.40
10583;DHT22;33679;51.218;6.786;2023-06-05T14:47:24;27.30;85.60
10583;DHT22;33679;51.218;6.786;2023-06-05T14:49:57;27.30;85.40
10583;DHT22;33679;51.218;6.786;2023-06-05T14:52:30;27.30;85.00
10583;DHT22;33679;51.218;6.786;2023-06-05T14:55:05;27.30;85.30
10583;DHT22;33679;51.218;6.786;2023-06-05T14:57:39;27.30;85.60
10583;DHT22;33679;51.218;6.786;2023-06-05T15:00:11;27.30;85.40
10583;DHT22;33679;51.218;6.786;2023-06-05T15:02:44;27.40;85.60
10583;DHT22;33679;51.218;6.786;2023-06-05T15:05:16;27.40;85.20
10583;DHT22;33679;51.218;6.786;2023-06-05T15:07:51;27.40;85.20
10583;DHT22;33679;51.218;6.786;2023-06-05T15:10:25;27.50;85.50
10583;DHT22;33679;51.218;6.786;2023-06-05T15:12:58;27.60;84.70
10583;DHT22;33679;51.218;6.786;2023-06-05T15:15:33;27.60;84.60
10583;DHT22;33679;51.218;6.786;2023-06-05T15:18:06;27.60;84.00
10583;DHT22;33679;51.218;6.786;2023-06-05T15:20:41;27.50;84.00
10583;DHT22;33679;51.218;6.786;2023-06-05T15:23:13;27.40;84.50
10583;DHT22;33679;51.218;6.786;2023-06-05T15:25:48;27.40;84.90
10583;DHT22;33679;51.218;6.786;2023-06-05T15:28:20;27.40;85.40
10583;DHT22;33679;51.218;6.786;2023-06-05T15:30:52;27.50;85.50
10583;DHT22;33679;51.218;6.786;2023-06-05T15:33:27;27.60;85.10
10583;DHT22;33679;51.218;6.786;2023-06-05T15:36:00;27.60;85.00
10583;DHT22;33679;51.218;6.786;2023-06-05T15:38:33;27.60;84.80
10583;DHT22;33679;51.218;6.786;2023-06-05T15:41:07;27.70;84.50
10583;DHT22;33679;51.218;6.786;2023-06-05T15:43:39;27.70;84.60
10583;DHT22;33679;51.218;6.786;2023-06-05T15:46:12;27.60;84.70
10583;DHT22;33679;51.218;6.786;2023-06-05T15:48:44;27.60;84.60
10583;DHT22;33679;51.218;6.786;2023-06-05T15:51:19;27.60;84.60
10583;DHT22;33679;51.218;6.786;2023-06-05T15:53:54;27.70;84.40
10583;DHT22;33679;51.218;6.786;2023-06-05T15:56:30;27.60;84.50
10583;DHT22;33679;51.218;6.786;2023-06-05T15:59:04;27.60;84.40
10583;DHT22;33679;51.218;6.786;2023-06-05T16:01:36;27.50;84.40
10583;DHT22;33679;51.218;6.786;2023-06-05T16:04:09;27.50;84.30
10583;DHT22;33679;51.218;6.786;2023-06-05T16:06:43;27.60;83.70
10583;DHT22;33679;51.218;6.786;2023-06-05T16:09:15;27.60;83.90
10583;DHT22;33679;51.218;6.786;2023-06-05T16:11:49;27.60;84.20
10583;DHT22;33679;51.218;6.786;2023-06-05T16:14:21;27.60;84.60
10583;DHT22;33679;51.218;6.786;2023-06-05T16:16:54;27.60;84.90
10583;DHT22;33679;51.218;6.786;2023-06-05T16:19:28;27.60;84.80
10583;DHT22;33679;51.218;6.786;2023-06-05T16:22:04;27.60;84.70
10583;DHT22;33679;51.218;6.786;2023-06-05T16:24:38;27.70;85.30